Time;durP1;ratioP1;P1;durP2;ratioP2;P2;SDS_P1;SDS_P2;PMS_P1;PMS_P2;Temp;Humidity;BMP_temperature;BMP_pressure;BME280_temperature;BME280_humidity;BME280_pressure;Samples;Min_cycle;Max_cycle;Signal;HPM_P1;HPM_P2
2023/01/09 00:02:24;;;;;;;16.85;8.63;;;;;;;2.68;88.56;97882.25;10394530;28;20032;-57
2023/01/09 00:07:23;;;;;;;2.47;2.38;;;;;;;3.13;87.17;97868.25;10391331;28;20132;-57
2023/01/09 00:12:23;;;;;;;7.30;4.43;;;;;;;3.59;85.62;97883.31;10399080;28;20136;-57
2023/01/09 00:17:21;;;;;;;17.15;8.88;;;;;;;3.41;83.79;97821.22;10390140;28;20123;-59
2023/01/09 00:22:20;;;;;;;10.60;6.03;;;;;;;3.94;82.70;97879.97;10391284;28;20035;-59
2023/01/09 00:27:19;;;;;;;9.40;2.55;;;;;;;4.02;81.56;97878.47;10394932;28;20127;-57
2023/01/09 00:32:19;;;;;;;0.10;0.10;;;;;;;3.98;80.47;97843.28;10405097;28;20124;-58
2023/01/09 00:37:19;;;;;;;5.60;4.43;;;;;;;4.11;80.14;97852.19;10406334;28;20111;-58
2023/01/09 00:42:24;;;;;;;1.48;1.38;;;;;;;4.23;79.00;97852.50;10410927;28;20067;-59
2023/01/09 00:47:39;;;;;;;11.63;6.90;;;;;;;4.28;78.34;97868.88;10393386;28;20122;-58
2023/01/09 00:52:39;;;;;;;11.07;6.20;;;;;;;4.24;78.09;97867.97;10400578;28;20067;-57
2023/01/09 00:57:38;;;;;;;9.90;3.80;;;;;;;4.04;78.00;97841.75;10398495;28;20120;-56
2023/01/09 01:02:37;;;;;;;4.13;2.40;;;;;;;4.16;77.90;97845.47;10400020;28;20592;-57
2023/01/09 01:07:40;;;;;;;3.80;2.70;;;;;;;4.26;77.57;97852.56;10392814;28;20542;-57
2023/01/09 01:12:39;;;;;;;5.03;2.95;;;;;;;4.13;77.10;97845.38;10382500;28;20155;-56
2023/01/09 01:17:39;;;;;;;2.22;1.15;;;;;;;4.31;77.52;97855.25;10385741;28;20060;-57
2023/01/09 01:22:41;;;;;;;0.10;0.10;;;;;;;4.42;76.85;97838.41;10405760;28;20060;-56
2023/01/09 01:27:40;;;;;;;11.48;8.07;;;;;;;4.61;76.03;97843.16;10395635;28;20057;-56
2023/01/09 01:32:39;;;;;;;23.23;12.00;;;;;;;4.71;74.99;97824.56;10397374;28;20483;-57
2023/01/09 01:37:38;;;;;;;;;;;;;;;4.81;74.21;97820.50;10392112;28;20056;-56
2023/01/09 01:42:45;;;;;;;0.30;0.30;;;;;;;4.72;74.12;97810.00;10405074;28;20608;-56
2023/01/09 01:47:58;;;;;;;9.35;3.95;;;;;;;4.15;72.27;97812.88;10383005;28;20060;-57
2023/01/09 01:53:14;;;;;;;4.57;3.05;;;;;;;3.80;73.49;97808.59;10386001;28;20064;-56
2023/01/09 01:58:14;;;;;;;0.20;0.20;;;;;;;3.67;73.64;97797.97;10394529;28;20059;-57
2023/01/09 02:03:20;;;;;;;0.85;0.85;;;;;;;3.58;73.64;97780.63;10397818;28;20507;-57
2023/01/09 02:08:20;;;;;;;3.30;2.88;;;;;;;3.49;74.13;97778.66;10390727;28;20064;-56
2023/01/09 02:13:19;;;;;;;0.55;0.55;;;;;;;3.38;74.78;97769.84;10398847;28;20595;-57
2023/01/09 02:18:27;;;;;;;0.90;0.88;;;;;;;3.41;74.87;97778.47;10395544;28;20095;-57
2023/01/09 02:23:47;;;;;;;0.95;0.95;;;;;;;3.16;74.21;97771.78;10387025;28;20491;-57
2023/01/09 02:28:46;;;;;;;1.02;0.93;;;;;;;2.95;75.62;97769.47;10408964;28;20064;-57
2023/01/09 02:33:52;;;;;;;0.50;0.50;;;;;;;2.63;74.00;97790.69;10389946;28;20039;-57
2023/01/09 02:39:21;;;;;;;1.30;1.30;;;;;;;2.20;75.00;97787.66;10401990;28;20552;-57
2023/01/09 02:44:25;;;;;;;18.42;8.77;;;;;;;2.07;76.18;97778.72;10404922;28;20483;-57
2023/01/09 02:49:24;;;;;;;3.22;2.08;;;;;;;2.13;79.48;97791.69;10379987;28;20056;-56
2023/01/09 02:55:00;;;;;;;8.27;2.88;;;;;;;2.47;80.13;97761.19;10407212;28;20477;-56
2023/01/09 03:00:41;;;;;;;0.75;0.75;;;;;;;3.03;80.93;97792.78;10391209;28;20115;-56
2023/01/09 03:05:52;;;;;;;8.93;5.43;;;;;;;3.43;80.75;97775.94;10379912;28;20095;-56
2023/01/09 03:10:59;;;;;;;1.10;0.55;;;;;;;3.67;79.85;97770.59;10409025;28;20059;-56
2023/01/09 03:16:04;;;;;;;9.75;5.60;;;;;;;3.83;79.29;97769.31;10379313;28;20068;-56
2023/01/09 03:21:06;;;;;;;4.15;3.60;;;;;;;4.03;78.10;97768.13;10393786;28;20561;-57
2023/01/09 03:26:09;;;;;;;1.33;0.98;;;;;;;4.18;77.74;97777.03;10406167;28;20060;-57
2023/01/09 03:31:09;;;;;;;3.40;2.20;;;;;;;4.28;77.21;97769.56;10390270;28;20063;-57
2023/01/09 03:36:10;;;;;;;3.75;2.35;;;;;;;4.40;76.77;97763.84;10392892;28;20087;-57
2023/01/09 03:41:09;;;;;;;8.07;3.58;;;;;;;4.37;76.40;97748.38;10388610;28;20471;-57
2023/01/09 03:46:08;;;;;;;3.30;2.47;;;;;;;4.51;76.02;97761.53;10408002;28;20452;-57
2023/01/09 03:51:07;;;;;;;1.23;1.23;;;;;;;4.53;76.21;97761.59;10400778;28;20542;-57
2023/01/09 03:56:06;;;;;;;0.90;0.88;;;;;;;4.61;75.92;97768.63;10391942;28;20064;-57
2023/01/09 04:01:11;;;;;;;7.03;4.63;;;;;;;4.65;75.42;97755.00;10385588;28;20053;-59
2023/01/09 04:06:10;;;;;;;11.52;5.80;;;;;;;4.51;75.32;97740.97;10386746;28;20083;-58
2023/01/09 04:11:09;;;;;;;2.80;2.60;;;;;;;4.44;75.23;97726.25;10371341;28;20128;-58
2023/01/09 04:16:08;;;;;;;9.52;5.63;;;;;;;4.55;75.60;97760.78;10387851;28;20029;-57
2023/01/09 04:21:07;;;;;;;5.13;3.60;;;;;;;4.34;76.14;97724.28;10383730;28;20113;-57
2023/01/09 04:26:06;;;;;;;3.72;2.65;;;;;;;4.44;76.06;97744.25;10395520;28;20115;-57
2023/01/09 04:31:05;;;;;;;10.50;4.82;;;;;;;4.42;76.42;97753.63;10388611;28;20874;-57
2023/01/09 04:36:05;;;;;;;4.30;3.45;;;;;;;4.49;76.09;97776.06;10380478;28;20032;-57
2023/01/09 04:41:04;;;;;;;4.90;3.45;;;;;;;4.47;76.11;97780.28;10397325;28;20465;-57
2023/01/09 04:46:03;;;;;;;0.20;0.20;;;;;;;4.40;75.87;97761.28;10393341;28;20490;-58
2023/01/09 04:51:02;;;;;;;10.00;5.65;;;;;;;4.19;76.03;97735.97;10388188;28;20060;-57
2023/01/09 04:56:01;;;;;;;7.80;3.55;;;;;;;4.48;76.10;97774.31;10382422;28;20031;-56
2023/01/09 05:01:00;;;;;;;3.95;2.28;;;;;;;4.53;76.20;97765.03;10403668;28;20066;-58
2023/01/09 05:05:59;;;;;;;3.40;2.10;;;;;;;4.26;76.42;97719.00;10403919;28;20048;-58
2023/01/09 05:10:59;;;;;;;6.60;3.95;;;;;;;4.33;76.83;97740.56;10406781;28;20119;-57
2023/01/09 05:15:58;;;;;;;7.10;4.35;;;;;;;4.30;76.87;97713.09;10399242;28;20056;-57
2023/01/09 05:20:57;;;;;;;0.75;0.75;;;;;;;4.31;77.35;97737.94;10384900;28;20033;-58
2023/01/09 05:25:56;;;;;;;1.17;0.95;;;;;;;4.38;77.21;97754.38;10388273;28;20071;-57
2023/01/09 05:30:55;;;;;;;3.55;3.03;;;;;;;4.35;77.42;97744.03;10375419;28;20407;-58
2023/01/09 05:35:54;;;;;;;5.38;4.05;;;;;;;4.28;77.57;97723.31;10402207;28;20076;-57
2023/01/09 05:42:24;;;;;;;2.50;1.77;;;;;;;4.36;77.35;97736.38;10280113;27;20602;-57
2023/01/09 05:47:23;;;;;;;1.10;1.00;;;;;;;4.44;76.80;97745.13;10109063;28;20057;-57
2023/01/09 05:52:23;;;;;;;0.57;0.50;;;;;;;4.47;76.55;97750.31;10308248;28;20033;-57
2023/01/09 05:57:22;;;;;;;12.63;5.95;;;;;;;4.52;76.34;97752.97;10376361;28;20044;-57
2023/01/09 06:02:21;;;;;;;21.73;9.50;;;;;;;4.52;76.36;97741.84;10363850;28;20022;-56
2023/01/09 06:07:20;;;;;;;15.85;6.50;;;;;;;4.44;76.32;97718.56;10377287;28;20143;-57
2023/01/09 06:12:19;;;;;;;1.15;1.05;;;;;;;4.60;76.03;97745.47;10368596;28;20037;-57
2023/01/09 06:17:18;;;;;;;1.65;1.55;;;;;;;4.62;76.25;97736.06;10357153;28;20064;-57
2023/01/09 06:22:17;;;;;;;3.95;2.83;;;;;;;4.69;75.72;97735.41;10365655;28;20622;-60
2023/01/09 06:27:16;;;;;;;3.20;2.33;;;;;;;6.60;87.17;97729.41;10360902;28;20159;-56
2023/01/09 06:32:15;;;;;;;1.60;0.90;;;;;;;8.81;67.03;97712.63;10372825;28;20025;-59
2023/01/09 06:37:13;;;;;;;1.63;1.33;;;;;;;8.00;61.88;97733.63;10390620;28;20052;-59
2023/01/09 06:42:12;;;;;;;4.40;1.30;;;;;;;7.15;63.69;97735.31;10395883;28;20059;-59
2023/01/09 06:47:11;;;;;;;3.67;2.00;;;;;;;6.56;64.80;97722.47;10369331;28;20033;-59
2023/01/09 06:52:11;;;;;;;6.82;3.17;;;;;;;6.29;66.26;97743.56;10388322;28;20051;-59
2023/01/09 06:57:10;;;;;;;;;;;;;;;6.00;67.95;97735.34;10359365;28;20478;-59
2023/01/09 07:02:19;;;;;;;3.30;1.92;;;;;;;5.85;69.37;97731.66;10363735;28;20576;-59
2023/01/09 07:07:19;;;;;;;1.00;1.00;;;;;;;5.72;69.58;97714.28;10354062;28;20064;-58
2023/01/09 07:12:18;;;;;;;13.70;6.72;;;;;;;5.61;70.17;97705.50;10354605;28;20060;-58
2023/01/09 07:17:17;;;;;;;1.63;1.33;;;;;;;5.54;70.66;97681.34;10337064;28;20031;-59
2023/01/09 07:22:17;;;;;;;15.90;6.45;;;;;;;5.51;70.68;97686.47;10352808;28;20044;-58
2023/01/09 07:27:15;;;;;;;9.00;4.38;;;;;;;5.61;70.84;97685.78;10344808;28;20052;-59
2023/01/09 07:32:14;;;;;;;6.38;2.78;;;;;;;5.77;70.17;97720.38;10348289;28;20013;-59
2023/01/09 07:37:14;;;;;;;10.60;4.88;;;;;;;5.80;70.18;97712.69;10328905;28;20044;-59
2023/01/09 07:42:13;;;;;;;6.25;3.90;;;;;;;5.84;69.62;97714.50;10359656;28;20076;-60
2023/01/09 07:47:12;;;;;;;19.30;9.02;;;;;;;5.87;70.03;97709.38;10357428;28;20064;-60
2023/01/09 07:52:11;;;;;;;8.45;7.70;;;;;;;5.86;69.08;97702.50;10359588;28;20029;-59
2023/01/09 07:57:10;;;;;;;8.20;4.72;;;;;;;6.04;68.96;97725.09;10336582;28;20140;-60
2023/01/09 08:02:09;;;;;;;8.43;5.25;;;;;;;6.19;68.45;97724.50;10349953;28;20037;-59
2023/01/09 08:07:08;;;;;;;1.10;1.10;;;;;;;6.27;68.22;97720.31;10357288;28;20028;-58
2023/01/09 08:12:07;;;;;;;4.20;2.85;;;;;;;6.30;67.45;97712.63;10348851;28;20032;-58
2023/01/09 08:17:08;;;;;;;6.35;3.88;;;;;;;6.40;67.00;97711.94;10366499;28;20067;-58
2023/01/09 08:22:07;;;;;;;7.82;4.15;;;;;;;6.48;66.44;97718.94;10314516;28;20090;-58
2023/01/09 08:27:05;;;;;;;10.60;5.35;;;;;;;6.46;66.53;97708.59;10360521;28;20056;-60
2023/01/09 08:32:04;;;;;;;5.00;2.90;;;;;;;6.41;66.26;97689.59;10360378;28;20124;-61
2023/01/09 08:37:03;;;;;;;16.42;5.38;;;;;;;6.57;66.84;97711.31;10338877;28;20161;-58
2023/01/09 08:47:22;;;;;;;7.80;4.38;;;;;;;6.52;66.70;97715.56;10353695;28;20068;-59
2023/01/09 08:52:21;;;;;;;8.95;5.70;;;;;;;6.62;66.11;97730.31;10344571;28;20049;-59
2023/01/09 08:57:20;;;;;;;7.25;3.47;;;;;;;6.62;65.35;97722.56;10335584;28;20113;-60
2023/01/09 09:02:19;;;;;;;13.73;6.95;;;;;;;6.60;65.11;97714.78;10347566;28;20094;-60
2023/01/09 09:07:25;;;;;;;12.88;6.00;;;;;;;6.70;65.24;97730.41;10326104;28;20127;-60
2023/01/09 09:12:24;;;;;;;4.38;1.88;;;;;;;6.84;64.90;97726.28;10331875;28;20121;-60
2023/01/09 09:17:23;;;;;;;5.30;2.72;;;;;;;6.89;64.61;97710.88;10364664;28;20044;-60
2023/01/09 09:22:21;;;;;;;2.55;2.30;;;;;;;6.91;63.56;97689.41;10325557;28;20055;-60
2023/01/09 09:27:21;;;;;;;6.97;4.85;;;;;;;7.06;63.38;97693.03;10334958;28;20127;-59
2023/01/09 09:32:20;;;;;;;3.85;2.35;;;;;;;7.30;62.82;97687.28;10322861;28;20057;-58
2023/01/09 09:37:18;;;;;;;7.10;3.92;;;;;;;7.35;62.42;97681.31;10328460;28;20092;-58
2023/01/09 09:48:14;;;;;;;2.10;1.63;;;;;;;7.61;61.19;97668.69;10331214;28;20061;-59
2023/01/09 09:53:31;;;;;;;4.00;2.42;;;;;;;7.74;60.83;97664.50;10356996;28;20067;-59
2023/01/09 09:58:37;;;;;;;5.00;2.28;;;;;;;7.84;59.99;97649.94;10361137;28;20080;-59
2023/01/09 10:03:43;;;;;;;6.10;3.55;;;;;;;7.87;59.88;97640.53;10341127;28;20049;-59
2023/01/09 10:08:57;;;;;;;3.50;2.63;;;;;;;7.92;59.54;97616.41;10329187;28;20123;-59
2023/01/09 10:14:05;;;;;;;3.42;3.03;;;;;;;7.96;58.78;97600.09;10358540;28;20060;-60
2023/01/09 10:19:21;;;;;;;7.22;4.13;;;;;;;8.17;57.97;97596.78;10344421;28;20113;-59
2023/01/09 10:24:49;;;;;;;6.47;5.15;;;;;;;8.29;56.86;97565.81;10322359;28;20128;-60
2023/01/09 10:29:57;;;;;;;1.55;1.10;;;;;;;8.73;56.81;97572.91;10316582;28;20574;-62
2023/01/09 10:35:45;;;;;;;2.33;1.10;;;;;;;8.98;55.58;97557.47;10336849;28;20068;-60
2023/01/09 10:40:53;;;;;;;9.68;4.68;;;;;;;9.06;55.12;97519.50;10319904;28;20136;-59
2023/01/09 10:45:55;;;;;;;3.72;1.85;;;;;;;9.42;54.17;97542.00;10366309;28;20064;-59
2023/01/09 10:50:55;;;;;;;6.00;2.83;;;;;;;9.52;53.86;97509.19;10296960;28;20056;-59
2023/01/09 10:56:01;;;;;;;4.22;2.45;;;;;;;9.81;53.53;97497.91;10354460;28;20120;-60
2023/01/09 11:01:01;;;;;;;9.82;5.05;;;;;;;10.14;53.25;97509.91;10359646;28;20529;-60
2023/01/09 11:06:02;;;;;;;1.88;1.77;;;;;;;10.11;52.27;97481.41;10351860;28;20060;-60
2023/01/09 11:11:02;;;;;;;14.25;9.18;;;;;;;10.41;51.98;97488.22;10317239;28;20108;-60
2023/01/09 11:16:13;;;;;;;10.70;4.18;;;;;;;10.51;51.61;97463.94;10365022;28;20064;-60
2023/01/09 11:21:13;;;;;;;2.95;2.75;;;;;;;10.67;51.96;97466.47;10366217;28;20820;-60
2023/01/09 11:26:27;;;;;;;4.38;2.15;;;;;;;10.89;50.65;97449.88;10359334;28;20131;-59
2023/01/09 11:31:27;;;;;;;4.78;1.48;;;;;;;11.13;50.22;97430.69;10336607;28;20116;-60
2023/01/09 11:36:27;;;;;;;5.82;1.75;;;;;;;11.56;49.46;97430.28;10335225;28;20110;-60
2023/01/09 11:41:30;;;;;;;1.50;1.45;;;;;;;11.78;48.57;97415.31;10353988;28;20544;-60
2023/01/09 11:46:34;;;;;;;0.20;0.20;;;;;;;12.23;47.86;97418.25;10334635;28;20060;-59
2023/01/09 11:51:35;;;;;;;3.17;2.08;;;;;;;12.51;46.99;97407.50;10334583;28;20064;-60
2023/01/09 11:56:35;;;;;;;3.55;2.45;;;;;;;12.64;46.26;97403.81;10352358;28;20587;-60
2023/01/09 12:02:04;;;;;;;3.10;1.85;;;;;;;12.73;46.05;97401.06;10346046;28;20073;-60
2023/01/09 12:07:18;;;;;;;2.50;2.25;;;;;;;12.51;45.84;97397.94;10325764;28;20053;-60
2023/01/09 12:12:41;;;;;;;2.17;1.40;;;;;;;12.14;46.37;97340.31;10331349;28;20513;-60
2023/01/09 12:18:04;;;;;;;1.55;0.90;;;;;;;12.27;46.21;97370.53;10319870;28;20049;-61
2023/01/09 12:23:36;;;;;;;4.35;2.40;;;;;;;11.91;46.68;97361.44;10347003;28;20075;-60
2023/01/09 12:29:08;;;;;;;0.50;0.30;;;;;;;11.63;46.54;97366.94;10305187;28;20064;-60
2023/01/09 12:34:28;;;;;;;3.70;3.00;;;;;;;11.42;47.16;97365.44;10324631;28;20991;-60
2023/01/09 12:39:33;;;;;;;4.30;2.08;;;;;;;11.18;47.16;97357.94;10345053;28;20080;-60
2023/01/09 12:44:39;;;;;;;0.73;0.73;;;;;;;10.96;47.66;97329.56;10343509;28;20077;-59
2023/01/09 12:50:06;;;;;;;3.25;2.33;;;;;;;10.91;47.92;97304.50;10339705;28;20048;-60
2023/01/09 12:55:17;;;;;;;0.90;0.90;;;;;;;11.01;47.74;97327.78;10340760;28;20072;-60
2023/01/09 13:00:21;;;;;;;0.50;0.50;;;;;;;10.90;47.90;97337.41;10343263;28;20040;-59
2023/01/09 13:05:30;;;;;;;0.20;0.20;;;;;;;10.73;47.87;97334.03;10353842;28;20060;-60
2023/01/09 13:10:32;;;;;;;4.88;2.88;;;;;;;10.59;48.99;97326.41;10336035;28;20057;-60
2023/01/09 13:15:46;;;;;;;0.15;0.15;;;;;;;10.66;48.76;97317.69;10304557;28;20130;-59
2023/01/09 13:20:52;;;;;;;2.05;1.52;;;;;;;10.57;48.68;97323.81;10302169;28;20093;-60
2023/01/09 13:25:56;;;;;;;0.50;0.50;;;;;;;10.51;49.07;97317.81;10329067;28;20081;-59
2023/01/09 13:31:07;;;;;;;3.13;1.20;;;;;;;10.38;49.20;97320.50;10321225;28;20056;-60
2023/01/09 13:36:06;;;;;;;4.03;2.97;;;;;;;10.01;49.53;97306.91;10323760;28;20049;-60
2023/01/09 13:46:39;;;;;;;8.27;5.80;;;;;;;10.02;50.22;97306.03;10332204;28;20069;-60
2023/01/09 13:51:41;;;;;;;1.85;1.75;;;;;;;9.90;49.70;97303.50;10337400;28;20053;-59
2023/01/09 13:57:17;;;;;;;4.18;2.80;;;;;;;9.75;50.76;97299.28;10331044;28;20065;-60
2023/01/09 14:02:34;;;;;;;1.42;1.33;;;;;;;9.68;50.24;97293.28;10332931;28;20057;-60
2023/01/09 14:07:34;;;;;;;2.47;1.95;;;;;;;9.63;50.79;97284.66;10337106;28;20064;-60
2023/01/09 14:12:42;;;;;;;5.15;2.05;;;;;;;9.67;50.70;97273.41;10338445;28;20049;-59
2023/01/09 14:17:41;;;;;;;7.07;4.00;;;;;;;9.55;50.79;97260.50;10366142;28;20072;-59
2023/01/09 14:22:40;;;;;;;;;;;;;;;9.46;50.97;97251.03;10347548;28;20948;-59
2023/01/09 14:27:54;;;;;;;6.28;2.47;;;;;;;9.43;51.27;97253.66;10360175;28;20396;-60
2023/01/09 14:33:02;;;;;;;2.88;1.88;;;;;;;9.36;50.99;97239.03;10342970;28;20597;-60
2023/01/09 14:38:10;;;;;;;6.13;3.10;;;;;;;9.20;50.92;97240.78;10350508;28;20541;-60
2023/01/09 14:43:22;;;;;;;7.72;3.88;;;;;;;9.11;51.36;97243.41;10353863;28;20113;-60
2023/01/09 14:48:23;;;;;;;3.95;2.95;;;;;;;8.92;51.27;97253.78;10303976;28;20678;-60
2023/01/09 14:53:35;;;;;;;0.93;0.73;;;;;;;8.67;52.19;97247.84;10364415;28;20065;-60
2023/01/09 14:58:35;;;;;;;1.23;0.65;;;;;;;8.62;52.50;97234.06;10333189;28;20061;-61
2023/01/09 15:03:40;;;;;;;1.45;0.98;;;;;;;8.47;52.91;97247.00;10365735;28;20125;-61
2023/01/09 15:08:44;;;;;;;2.22;1.23;;;;;;;8.32;53.55;97228.88;10323174;28;20065;-61
2023/01/09 15:13:47;;;;;;;3.70;1.38;;;;;;;8.12;54.05;97216.84;10348832;28;20068;-60
2023/01/09 15:18:54;;;;;;;4.57;2.33;;;;;;;8.04;54.19;97208.25;10333415;28;20080;-60
2023/01/09 15:23:53;;;;;;;5.72;1.73;;;;;;;8.03;54.34;97197.03;10362960;28;20065;-60
2023/01/09 15:28:59;;;;;;;4.00;1.45;;;;;;;7.98;55.19;97193.59;10345342;28;20049;-60
2023/01/09 15:34:02;;;;;;;2.20;0.95;;;;;;;8.01;55.33;97178.09;10333718;28;20095;-60
2023/01/09 15:39:06;;;;;;;5.00;2.25;;;;;;;8.07;54.88;97162.56;10333556;28;20494;-60
2023/01/09 15:44:11;;;;;;;3.17;2.38;;;;;;;8.07;55.02;97162.56;10305340;28;20053;-60
2023/01/09 15:49:12;;;;;;;0.17;0.17;;;;;;;8.16;55.27;97177.22;10330943;28;20861;-60
2023/01/09 15:54:19;;;;;;;0.98;0.98;;;;;;;8.19;55.14;97169.47;10336569;28;20073;-60
2023/01/09 15:59:26;;;;;;;1.17;1.08;;;;;;;8.35;54.45;97157.38;10334019;28;20069;-60
2023/01/09 16:04:25;;;;;;;0.30;0.30;;;;;;;8.35;54.63;97154.78;10360501;28;20486;-60
2023/01/09 16:09:28;;;;;;;1.10;0.77;;;;;;;8.22;54.23;97122.06;10320365;28;21855;-60
2023/01/09 16:14:40;;;;;;;7.90;4.22;;;;;;;8.44;54.04;97147.03;10327914;28;20068;-60
2023/01/09 16:19:52;;;;;;;5.65;1.70;;;;;;;8.50;54.27;97144.44;10302978;28;20462;-61
2023/01/09 16:24:54;;;;;;;2.25;1.70;;;;;;;8.54;53.98;97134.91;10325961;28;20134;-60
2023/01/09 16:29:58;;;;;;;5.38;3.40;;;;;;;8.46;53.96;97121.16;10335751;28;20049;-59
2023/01/09 16:35:04;;;;;;;7.60;2.33;;;;;;;8.52;53.91;97127.16;10311697;28;20479;-59
2023/01/09 16:40:19;;;;;;;3.60;2.60;;;;;;;8.50;53.59;97128.03;10326905;28;20112;-59
2023/01/09 16:45:19;;;;;;;4.10;2.03;;;;;;;8.52;53.93;97124.56;10320634;28;20088;-60
2023/01/09 16:50:20;;;;;;;4.47;4.20;;;;;;;8.47;54.28;97125.47;10321748;28;20068;-60
2023/01/09 16:55:19;;;;;;;3.40;1.38;;;;;;;8.44;53.81;97105.66;10342120;28;20092;-60
2023/01/09 17:00:19;;;;;;;0.93;0.93;;;;;;;8.58;53.59;97107.34;9414245;28;10000927;-60
2023/01/09 17:05:18;;;;;;;4.70;2.72;;;;;;;8.56;53.32;97098.72;10287069;28;20072;-60
2023/01/09 17:10:20;;;;;;;6.45;2.03;;;;;;;8.59;53.27;97115.06;10293792;28;20502;-60
2023/01/09 17:15:19;;;;;;;0.57;0.45;;;;;;;8.56;53.39;97103.91;10284684;28;20076;-60
2023/01/09 17:20:19;;;;;;;2.70;1.40;;;;;;;8.50;53.12;97097.00;8518802;28;10000941;-61
2023/01/09 17:30:35;;;;;;;5.70;2.78;;;;;;;8.39;53.40;97097.06;10280786;28;20057;-60
2023/01/09 17:35:34;;;;;;;6.95;3.33;;;;;;;8.30;53.47;97092.75;9396024;28;10001491;-60
2023/01/09 17:40:33;;;;;;;;;;;;;;;8.21;53.72;97091.94;9402095;28;10000944;-60
2023/01/09 17:45:32;;;;;;;6.35;2.75;;;;;;;8.04;54.56;97084.22;10252157;28;20305;-60
2023/01/09 17:50:33;;;;;;;4.55;3.53;;;;;;;7.77;55.26;97054.97;10253975;28;20034;-60
2023/01/09 17:55:33;;;;;;;6.53;4.40;;;;;;;7.68;55.26;97054.13;10243502;28;20077;-60
2023/01/09 18:00:35;;;;;;;8.30;4.05;;;;;;;7.47;56.44;97081.66;10243733;28;20582;-59
2023/01/09 18:05:35;;;;;;;16.25;6.97;;;;;;;7.34;57.53;97090.25;10252096;28;20141;-60
2023/01/09 18:10:36;;;;;;;7.07;4.47;;;;;;;7.19;58.55;97098.78;10251364;28;20541;-61
2023/01/09 18:15:35;;;;;;;5.82;2.75;;;;;;;6.99;58.97;97085.88;9364944;28;10001191;-61
2023/01/09 18:20:41;;;;;;;10.23;5.00;;;;;;;6.93;59.48;97078.09;9395157;28;10000844;-60
2023/01/09 18:25:41;;;;;;;6.45;3.78;;;;;;;6.77;60.00;97098.72;9396064;28;10000975;-60
2023/01/09 18:30:50;;;;;;;25.16;4.72;;;;;;;6.70;60.38;97102.13;8462342;28;10001143;-65
2023/01/09 18:35:49;;;;;;;6.40;2.58;;;;;;;6.58;61.80;97094.31;9742584;28;10000970;-61
2023/01/09 18:40:48;;;;;;;5.75;4.57;;;;;;;6.20;62.88;97076.97;10240945;28;20462;-61
2023/01/09 18:45:47;;;;;;;9.98;5.68;;;;;;;6.26;62.99;97089.00;10244012;28;20038;-61
2023/01/09 18:50:46;;;;;;;7.72;3.70;;;;;;;6.28;63.01;97080.47;10243288;28;20117;-61
2023/01/09 18:55:45;;;;;;;8.35;3.53;;;;;;;6.40;63.14;97083.09;10255254;28;20102;-61
2023/01/09 19:00:45;;;;;;;7.70;3.72;;;;;;;6.37;62.65;97062.47;10258574;28;20057;-61
2023/01/09 19:05:44;;;;;;;3.30;2.15;;;;;;;6.38;62.63;97038.41;10252381;28;20066;-61
2023/01/09 19:10:48;;;;;;;5.15;2.67;;;;;;;6.44;61.77;97018.66;10249864;28;20105;-61
2023/01/09 19:15:53;;;;;;;10.15;4.15;;;;;;;6.62;61.27;97041.94;9369010;28;10000217;-61
2023/01/09 19:20:53;;;;;;;7.82;3.20;;;;;;;6.80;60.76;97035.97;10261845;28;20117;-61
2023/01/09 19:25:53;;;;;;;11.63;6.07;;;;;;;6.82;61.15;97039.41;10263831;28;20125;-63
2023/01/09 19:30:55;;;;;;;3.92;2.80;;;;;;;6.93;60.69;97044.56;10265779;28;20492;-60
2023/01/09 19:35:54;;;;;;;4.72;2.60;;;;;;;7.03;60.18;97017.97;10253880;28;20065;-59
2023/01/09 19:40:53;;;;;;;5.45;3.80;;;;;;;7.02;60.00;97004.19;10250765;28;20444;-59
2023/01/09 19:45:56;;;;;;;11.35;4.57;;;;;;;7.11;59.60;96992.16;10245173;28;20072;-60
2023/01/09 19:51:05;;;;;;;10.30;4.93;;;;;;;7.18;59.93;97007.63;10260732;28;20073;-60
2023/01/09 19:56:07;;;;;;;3.53;2.35;;;;;;;6.80;60.53;96974.09;9375785;28;10000911;-60
2023/01/09 20:01:13;;;;;;;15.45;5.83;;;;;;;6.92;61.29;97014.50;9417839;28;10001512;-61
2023/01/09 20:06:17;;;;;;;8.82;3.80;;;;;;;6.80;61.78;97011.03;10284213;28;20390;-60
2023/01/09 20:11:16;;;;;;;8.40;4.68;;;;;;;6.53;62.39;97000.66;9408460;28;10000951;-61
2023/01/09 20:16:20;;;;;;;9.80;4.85;;;;;;;6.61;63.16;97015.28;10291720;28;20069;-59
2023/01/09 20:21:23;;;;;;;8.30;4.38;;;;;;;6.54;62.71;96977.47;9396569;28;10001046;-60
2023/01/09 20:26:24;;;;;;;13.65;6.35;;;;;;;6.69;63.07;96983.50;10279793;28;20113;-60
2023/01/09 20:31:29;;;;;;;9.52;4.10;;;;;;;6.66;62.76;96996.41;10280510;28;20092;-60
2023/01/09 20:36:29;;;;;;;3.72;2.50;;;;;;;6.65;63.06;97000.69;10288009;28;20070;-60
2023/01/09 20:41:30;;;;;;;17.58;8.07;;;;;;;6.63;62.58;96992.06;10286516;28;20169;-60
2023/01/09 20:46:33;;;;;;;14.93;7.47;;;;;;;6.73;62.32;96982.66;10284176;28;20536;-60
2023/01/09 20:51:40;;;;;;;7.10;3.85;;;;;;;6.69;62.43;96963.75;10286185;28;20103;-61
2023/01/09 20:56:39;;;;;;;5.40;3.90;;;;;;;6.59;63.42;96947.41;9402621;28;10001095;-60
2023/01/09 21:01:39;;;;;;;8.63;5.27;;;;;;;6.30;63.95;96908.66;9398927;28;10000735;-60
2023/01/09 21:06:38;;;;;;;8.80;4.65;;;;;;;6.51;63.20;96922.47;10274186;28;20346;-60
2023/01/09 21:11:37;;;;;;;8.50;3.33;;;;;;;6.35;64.26;96921.56;10287513;28;20104;-60
2023/01/09 21:16:36;;;;;;;3.80;2.90;;;;;;;6.31;64.62;96948.22;10282794;28;20045;-54
2023/01/09 21:21:35;;;;;;;3.05;2.58;;;;;;;6.36;63.61;96924.16;10286193;28;20104;-54
2023/01/09 21:26:34;;;;;;;8.77;5.90;;;;;;;6.53;63.14;96936.22;10287822;28;20076;-54
2023/01/09 21:31:33;;;;;;;;;;;;;;;6.55;63.67;96937.09;10286048;28;20058;-54
2023/01/09 21:36:34;;;;;;;9.65;4.45;;;;;;;6.59;62.99;96924.19;10291057;28;19921;-54
2023/01/09 21:46:50;;;;;;;15.02;3.92;;;;;;;6.54;63.02;96881.25;10280820;28;20564;-55
2023/01/09 21:51:51;;;;;;;10.38;5.30;;;;;;;6.80;62.63;96915.63;10288352;28;20450;-58
2023/01/09 21:56:53;;;;;;;5.18;2.10;;;;;;;6.70;62.56;96872.66;10297414;28;20065;-55
2023/01/09 22:01:52;;;;;;;14.57;5.10;;;;;;;6.70;63.42;96893.28;10301853;28;20081;-54
2023/01/09 22:06:51;;;;;;;0.82;0.82;;;;;;;6.66;63.75;96888.97;10292030;28;20124;-54
2023/01/09 22:11:50;;;;;;;6.97;3.90;;;;;;;6.55;63.89;96906.16;10258068;28;20053;-55
2023/01/09 22:16:49;;;;;;;11.18;5.07;;;;;;;6.45;64.71;96912.16;10271409;28;20042;-54
2023/01/09 22:21:48;;;;;;;6.00;2.03;;;;;;;6.34;64.17;96873.47;10278883;28;20045;-55
2023/01/09 22:26:47;;;;;;;1.30;1.27;;;;;;;6.44;64.98;96889.81;10297967;28;20136;-54
2023/01/09 22:31:46;;;;;;;0.40;0.40;;;;;;;6.49;64.65;96890.66;10296457;28;20549;-55
2023/01/09 22:36:45;;;;;;;0.28;0.28;;;;;;;6.53;63.83;96862.31;10293437;28;20419;-55
2023/01/09 22:41:48;;;;;;;;;;;;;;;6.65;64.19;96892.41;10286966;28;20166;-54
2023/01/09 22:46:47;;;;;;;10.80;4.57;;;;;;;6.72;63.31;96906.16;10298405;28;19949;-55
2023/01/09 22:51:46;;;;;;;8.02;3.83;;;;;;;6.74;63.67;96901.88;10291983;28;20034;-54
2023/01/09 22:56:47;;;;;;;0.95;0.90;;;;;;;6.80;63.41;96915.63;10292810;28;20148;-55
2023/01/09 23:01:46;;;;;;;1.40;1.30;;;;;;;6.87;62.96;96893.28;10292957;28;20120;-55
2023/01/09 23:06:45;;;;;;;3.25;2.85;;;;;;;6.92;63.17;96912.19;10293474;28;20199;-54
2023/01/09 23:12:02;;;;;;;5.22;3.50;;;;;;;6.71;63.47;96881.25;10288928;28;20123;-55
2023/01/09 23:17:02;;;;;;;7.72;3.17;;;;;;;6.79;63.74;96913.88;10268382;28;20458;-54
2023/01/09 23:22:03;;;;;;;1.90;1.60;;;;;;;6.69;64.03;96877.81;10285344;28;20129;-54
2023/01/09 23:27:03;;;;;;;5.45;1.88;;;;;;;6.99;63.47;96876.94;10288977;28;20485;-55
2023/01/09 23:32:02;;;;;;;3.92;1.92;;;;;;;7.06;63.17;96881.22;10289149;28;20068;-55
2023/01/09 23:37:02;;;;;;;8.98;5.00;;;;;;;7.15;63.19;96882.94;10293554;28;20097;-54
2023/01/09 23:47:19;;;;;;;2.45;2.08;;;;;;;7.33;62.17;96861.38;10291541;28;20073;-55
2023/01/09 23:52:18;;;;;;;0.65;0.65;;;;;;;7.33;62.43;96833.00;10291664;28;20045;-55
2023/01/09 23:57:17;;;;;;;10.05;3.80;;;;;;;7.37;62.34;96840.72;10291310;28;20773;-54
